This is the latest recevied weather packets stored in our database for station/object KG5MMT-12. If no packets are shown the sender has not sent any weather packets the latest 10 day(s).
| Time | Temp. | Humidity | Pressure | Rain* | Wind** | Luminosity | Snow |
|---|---|---|---|---|---|---|---|
| 1778116727 | 5.56° C | 81% | 0 hPa | 0 mm | - | - | - |
| 1778116427 | 6.11° C | 80% | 0 hPa | 0 mm | - | - | - |
| 1778116126 | 6.11° C | 80% | 0 hPa | 0 mm | - | - | - |
| 1778115827 | 6.11° C | 82% | 0 hPa | 0 mm | - | - | - |
| 1778115527 | 6.11° C | 81% | 0 hPa | 0 mm | - | - | - |
| 1778115226 | 6.67° C | 80% | 0 hPa | 0 mm | - | - | - |
| 1778114926 | 7.22° C | 74% | 0 hPa | 0 mm | - | - | - |
| 1778114627 | 7.78° C | 71% | 0 hPa | 0 mm | - | - | - |
| 1778114327 | 9.44° C | 62% | 0 hPa | 0 mm | - | - | - |
| 1778114027 | 10° C | 57% | 0 hPa | 0 mm | - | - | - |
| 1778113726 | 10° C | 56% | 0 hPa | 0 mm | - | - | - |
| 1778113427 | 10° C | 57% | 0 hPa | 0 mm | - | - | - |
| 1778113127 | 10° C | 57% | 0 hPa | 0 mm | - | - | - |
| 1778112827 | 10.56° C | 55% | 0 hPa | 0 mm | - | - | - |
| 1778112527 | 11.11° C | 50% | 0 hPa | 0 mm | - | - | - |
| 1778112227 | 11.11° C | 49% | 0 hPa | 0 mm | - | - | - |
| 1778111927 | 11.11° C | 47% | 0 hPa | 0 mm | - | - | - |
| 1778111627 | 11.67° C | 48% | 0 hPa | 0 mm | - | - | - |
| 1778111327 | 11.67° C | 49% | 0 hPa | 0 mm | - | - | - |
| 1778111027 | 11.67° C | 48% | 0 hPa | 0 mm | - | - | - |
| 1778110727 | 11.67° C | 48% | 0 hPa | 0 mm | - | - | - |
| 1778110427 | 12.22° C | 47% | 0 hPa | 0 mm | - | - | - |
| 1778110127 | 12.22° C | 46% | 0 hPa | 0 mm | - | - | - |
| 1778109827 | 12.22° C | 51% | 0 hPa | 0 mm | - | - | - |
| 1778109527 | 11.67° C | 50% | 0 hPa | 0 mm | - | - | - |
* Rain latest hour (hover to see other rain measurements)
** Current wind speed in m/s (hover to see current wind gust speed)